Time;durP1;ratioP1;P1;durP2;ratioP2;P2;SDS_P1;SDS_P2;PMS_P1;PMS_P2;Temp;Humidity;BMP_temperature;BMP_pressure;BME280_temperature;BME280_humidity;BME280_pressure;Samples;Min_cycle;Max_cycle;Signal;HPM_P1;HPM_P2
2022/05/06 00:00:07;;;;;;;;;2.00;2.00;;;;;;;;4989796;28;45465;-73
2022/05/06 00:02:32;;;;;;;;;4.00;4.00;;;;;;;;4996638;28;45297;-74
2022/05/06 00:04:58;;;;;;;;;3.00;3.00;;;;;;;;4989751;28;45570;-74
2022/05/06 00:07:23;;;;;;;;;5.50;4.50;;;;;;;;4982618;28;45492;-73
2022/05/06 00:09:48;;;;;;;;;3.75;3.75;;;;;;;;4995464;28;45304;-73
2022/05/06 00:12:17;;;;;;;;;3.00;3.00;;;;;;;;4997918;28;45527;-73
2022/05/06 00:14:42;;;;;;;;;3.00;3.00;;;;;;;;4995912;28;45431;-73
2022/05/06 00:17:08;;;;;;;;;3.00;3.00;;;;;;;;4999731;28;47182;-73
2022/05/06 00:19:33;;;;;;;;;3.00;2.75;;;;;;;;4995635;28;45469;-73
2022/05/06 00:21:58;;;;;;;;;2.50;2.50;;;;;;;;4996347;28;45369;-73
2022/05/06 00:24:24;;;;;;;;;4.00;4.00;;;;;;;;4989198;28;45147;-73
2022/05/06 00:26:49;;;;;;;;;3.50;3.50;;;;;;;;4984836;28;45413;-73
2022/05/06 00:29:14;;;;;;;;;4.00;3.50;;;;;;;;4994025;28;45512;-74
2022/05/06 00:31:40;;;;;;;;;3.00;3.00;;;;;;;;4996604;28;45273;-73
2022/05/06 00:34:05;;;;;;;;;3.00;3.00;;;;;;;;4992392;28;45344;-73
2022/05/06 00:36:30;;;;;;;;;4.25;4.25;;;;;;;;4996027;28;45375;-73
2022/05/06 00:38:56;;;;;;;;;5.00;2.25;;;;;;;;4996699;28;45886;-73
2022/05/06 00:41:21;;;;;;;;;4.00;4.00;;;;;;;;4996095;28;45490;-73
2022/05/06 00:43:46;;;;;;;;;5.00;4.00;;;;;;;;4996003;28;45314;-74
2022/05/06 00:46:13;;;;;;;;;3.00;3.00;;;;;;;;4983736;28;45386;-73
2022/05/06 00:48:40;;;;;;;;;3.00;3.00;;;;;;;;4993299;28;45366;-73
2022/05/06 00:51:06;;;;;;;;;5.00;4.00;;;;;;;;4991809;28;45379;-73
2022/05/06 00:53:32;;;;;;;;;3.00;3.00;;;;;;;;4984580;28;45476;-74
2022/05/06 00:55:58;;;;;;;;;4.75;3.75;;;;;;;;4979728;28;45523;-73
2022/05/06 00:58:29;;;;;;;;;3.00;3.00;;;;;;;;4990887;28;45516;-73
2022/05/06 01:00:54;;;;;;;;;3.00;3.00;;;;;;;;4995576;28;45610;-73
2022/05/06 01:03:19;;;;;;;;;3.25;3.00;;;;;;;;4989491;28;45305;-74
2022/05/06 01:05:45;;;;;;;;;3.50;3.50;;;;;;;;4984544;28;46346;-74
2022/05/06 01:08:10;;;;;;;;;2.00;2.00;;;;;;;;4981522;28;45452;-74
2022/05/06 01:10:36;;;;;;;;;3.00;3.00;;;;;;;;4980372;28;45238;-73
2022/05/06 01:13:01;;;;;;;;;4.25;3.50;;;;;;;;4999505;28;45273;-73
2022/05/06 01:15:27;;;;;;;;;4.25;2.50;;;;;;;;4988195;28;45381;-74
2022/05/06 01:17:54;;;;;;;;;3.25;3.25;;;;;;;;4992404;28;45484;-74
2022/05/06 01:20:20;;;;;;;;;2.75;2.75;;;;;;;;4995727;28;45475;-73
2022/05/06 01:22:46;;;;;;;;;3.00;3.00;;;;;;;;4984473;28;45372;-73
2022/05/06 01:25:12;;;;;;;;;3.25;2.75;;;;;;;;4992732;28;45405;-73
2022/05/06 01:27:43;;;;;;;;;4.50;3.00;;;;;;;;4986496;28;45574;-73
2022/05/06 01:30:09;;;;;;;;;3.00;3.00;;;;;;;;4988659;28;45693;-73
2022/05/06 01:32:35;;;;;;;;;4.50;4.50;;;;;;;;4995392;28;45460;-73
2022/05/06 01:35:02;;;;;;;;;4.00;3.25;;;;;;;;4994066;28;47090;-73
2022/05/06 01:37:28;;;;;;;;;2.50;2.50;;;;;;;;5000663;28;45437;-74
2022/05/06 01:39:58;;;;;;;;;2.50;2.50;;;;;;;;4995549;28;45214;-73
2022/05/06 01:42:25;;;;;;;;;2.75;2.75;;;;;;;;4995968;28;45455;-73
2022/05/06 01:44:51;;;;;;;;;4.75;3.50;;;;;;;;4989658;28;45379;-74
2022/05/06 01:47:23;;;;;;;;;3.00;3.00;;;;;;;;4987034;28;47974;-73
2022/05/06 01:49:49;;;;;;;;;2.75;2.75;;;;;;;;4980059;28;45458;-73
2022/05/06 01:52:17;;;;;;;;;3.50;3.50;;;;;;;;4991641;28;45689;-74
2022/05/06 01:54:42;;;;;;;;;2.00;2.00;;;;;;;;4985480;28;46937;-73
2022/05/06 01:57:07;;;;;;;;;3.25;3.25;;;;;;;;4983847;28;45360;-73
2022/05/06 01:59:33;;;;;;;;;2.00;2.00;;;;;;;;4994815;28;45505;-73
2022/05/06 02:01:58;;;;;;;;;3.25;3.25;;;;;;;;5003068;28;45300;-73
2022/05/06 02:07:07;;;;;;;;;3.25;3.00;;;;;;;;4994405;28;45536;-73
2022/05/06 02:09:32;;;;;;;;;3.00;3.00;;;;;;;;4987076;28;45322;-73
2022/05/06 02:11:57;;;;;;;;;4.00;4.00;;;;;;;;4986438;28;45580;-73
2022/05/06 02:14:22;;;;;;;;;3.00;3.00;;;;;;;;4994982;28;46244;-73
2022/05/06 02:16:48;;;;;;;;;3.00;2.75;;;;;;;;4988786;28;45415;-73
2022/05/06 02:19:14;;;;;;;;;3.00;3.00;;;;;;;;4991485;28;45388;-73
2022/05/06 02:21:39;;;;;;;;;2.25;2.25;;;;;;;;4986019;28;45342;-73
2022/05/06 02:24:04;;;;;;;;;3.00;3.00;;;;;;;;4987625;28;45504;-73
2022/05/06 02:26:29;;;;;;;;;2.00;2.00;;;;;;;;4981455;28;45477;-73
2022/05/06 02:28:55;;;;;;;;;2.50;2.50;;;;;;;;4991805;28;45476;-74
2022/05/06 02:34:04;;;;;;;;;2.00;2.00;;;;;;;;4989582;28;45926;-73
2022/05/06 02:36:29;;;;;;;;;3.75;3.75;;;;;;;;4987143;28;45527;-73
2022/05/06 02:38:54;;;;;;;;;2.00;2.00;;;;;;;;4985412;28;45312;-73
2022/05/06 02:41:19;;;;;;;;;4.00;2.00;;;;;;;;4993969;28;45400;-73
2022/05/06 02:43:45;;;;;;;;;2.75;2.25;;;;;;;;4994654;28;45461;-73
2022/05/06 02:46:10;;;;;;;;;2.50;2.50;;;;;;;;4995168;28;45587;-74
2022/05/06 02:48:35;;;;;;;;;0.00;0.00;;;;;;;;4998014;28;45511;-73
2022/05/06 02:51:00;;;;;;;;;4.75;4.75;;;;;;;;4994518;28;45293;-73
2022/05/06 02:53:26;;;;;;;;;2.00;2.00;;;;;;;;4994239;28;46453;-74
2022/05/06 02:55:51;;;;;;;;;4.00;4.00;;;;;;;;4997465;28;45512;-73
2022/05/06 02:58:16;;;;;;;;;2.50;2.50;;;;;;;;4995469;28;45510;-73
2022/05/06 03:00:43;;;;;;;;;3.00;3.00;;;;;;;;4989834;28;45578;-73
2022/05/06 03:03:08;;;;;;;;;4.00;2.25;;;;;;;;4992677;28;46146;-73
2022/05/06 03:05:33;;;;;;;;;1.00;1.00;;;;;;;;4982293;28;45572;-73
2022/05/06 03:07:58;;;;;;;;;3.00;3.00;;;;;;;;4993775;28;45305;-73
2022/05/06 03:10:24;;;;;;;;;2.50;2.50;;;;;;;;4998157;28;45546;-73
2022/05/06 03:12:50;;;;;;;;;2.00;2.00;;;;;;;;4987139;28;45825;-73
2022/05/06 03:15:15;;;;;;;;;2.00;2.00;;;;;;;;4989742;28;45424;-74
2022/05/06 03:17:40;;;;;;;;;2.00;2.00;;;;;;;;4991883;28;45316;-73
2022/05/06 03:20:08;;;;;;;;;2.75;2.00;;;;;;;;4997406;28;45294;-73
2022/05/06 03:22:41;;;;;;;;;3.00;3.00;;;;;;;;4981899;28;46146;-73
2022/05/06 03:25:07;;;;;;;;;2.00;2.00;;;;;;;;4997748;28;45234;-73
2022/05/06 03:30:16;;;;;;;;;1.00;1.00;;;;;;;;4991848;28;45592;-73
2022/05/06 03:32:42;;;;;;;;;3.50;3.50;;;;;;;;4986086;28;46589;-73
2022/05/06 03:35:07;;;;;;;;;2.00;2.00;;;;;;;;4982504;28;45508;-73
2022/05/06 03:37:34;;;;;;;;;3.00;3.00;;;;;;;;4997511;28;45290;-73
2022/05/06 03:39:59;;;;;;;;;2.00;2.00;;;;;;;;5000107;28;45610;-73
2022/05/06 03:42:24;;;;;;;;;3.75;3.00;;;;;;;;4999898;28;48462;-73
2022/05/06 03:44:49;;;;;;;;;2.50;2.00;;;;;;;;5000148;28;45460;-73
2022/05/06 03:47:15;;;;;;;;;2.75;2.75;;;;;;;;5001847;28;45404;-73
2022/05/06 03:49:40;;;;;;;;;3.00;1.75;;;;;;;;4992975;28;45350;-73
2022/05/06 03:52:05;;;;;;;;;2.25;2.25;;;;;;;;4996925;28;45501;-73
2022/05/06 03:54:31;;;;;;;;;3.00;3.00;;;;;;;;4988990;28;45499;-73
2022/05/06 03:56:58;;;;;;;;;2.50;2.50;;;;;;;;4985778;28;45440;-73
2022/05/06 03:59:23;;;;;;;;;2.00;2.00;;;;;;;;4983302;28;45420;-73
2022/05/06 04:01:49;;;;;;;;;4.00;4.00;;;;;;;;5003356;28;45407;-73
2022/05/06 04:04:14;;;;;;;;;3.75;3.00;;;;;;;;4997528;28;45490;-73
2022/05/06 04:06:39;;;;;;;;;2.00;2.00;;;;;;;;4997549;28;45643;-73
2022/05/06 04:09:04;;;;;;;;;3.25;3.25;;;;;;;;4996714;28;45312;-73
2022/05/06 04:11:29;;;;;;;;;2.00;2.00;;;;;;;;4996784;28;46278;-73
2022/05/06 04:13:55;;;;;;;;;3.25;3.25;;;;;;;;4980883;28;45331;-74
2022/05/06 04:16:22;;;;;;;;;2.50;2.50;;;;;;;;4982568;28;45417;-73
2022/05/06 04:18:47;;;;;;;;;2.25;2.25;;;;;;;;4985420;28;45593;-73
2022/05/06 04:23:56;;;;;;;;;3.00;3.00;;;;;;;;4988053;28;45472;-73
2022/05/06 04:26:21;;;;;;;;;2.00;2.00;;;;;;;;4995524;28;45348;-73
2022/05/06 04:28:47;;;;;;;;;2.00;2.00;;;;;;;;5006924;28;45514;-73
2022/05/06 04:31:12;;;;;;;;;3.00;3.00;;;;;;;;4994909;28;46346;-74
2022/05/06 04:33:39;;;;;;;;;2.50;2.50;;;;;;;;4995246;28;45484;-73
2022/05/06 04:36:04;;;;;;;;;2.50;2.50;;;;;;;;4994859;28;45377;-73
2022/05/06 04:38:30;;;;;;;;;2.00;2.00;;;;;;;;4995371;28;45388;-73
2022/05/06 04:40:56;;;;;;;;;2.50;2.50;;;;;;;;4993813;28;45484;-73
2022/05/06 04:43:21;;;;;;;;;4.00;4.00;;;;;;;;4981796;28;45406;-73
2022/05/06 04:45:48;;;;;;;;;2.50;2.50;;;;;;;;4994919;28;45380;-73
2022/05/06 04:48:14;;;;;;;;;2.00;2.00;;;;;;;;4992217;28;46410;-73
2022/05/06 04:50:40;;;;;;;;;2.00;2.00;;;;;;;;5005464;28;46270;-73
2022/05/06 04:53:08;;;;;;;;;3.00;3.00;;;;;;;;4981065;28;45565;-73
2022/05/06 04:55:34;;;;;;;;;2.75;2.75;;;;;;;;4980974;28;45606;-73
2022/05/06 04:57:59;;;;;;;;;3.00;3.00;;;;;;;;4995982;28;45368;-73
2022/05/06 05:00:24;;;;;;;;;2.00;2.00;;;;;;;;4988914;28;45515;-73
2022/05/06 05:02:50;;;;;;;;;3.00;3.00;;;;;;;;4984722;28;45400;-73
2022/05/06 05:05:15;;;;;;;;;3.75;3.75;;;;;;;;4980158;28;45345;-74
2022/05/06 05:07:41;;;;;;;;;2.75;2.75;;;;;;;;4993763;28;45437;-73
2022/05/06 05:10:06;;;;;;;;;2.00;2.00;;;;;;;;4987835;28;45434;-74
2022/05/06 05:12:31;;;;;;;;;2.75;2.75;;;;;;;;4994528;28;45369;-74
2022/05/06 05:14:57;;;;;;;;;3.00;3.00;;;;;;;;4991299;28;45453;-74
2022/05/06 05:17:22;;;;;;;;;2.00;2.00;;;;;;;;4995877;28;45444;-73
2022/05/06 05:19:47;;;;;;;;;2.50;2.50;;;;;;;;4995320;28;47073;-74
2022/05/06 05:22:12;;;;;;;;;3.25;3.00;;;;;;;;4983137;28;45394;-74
2022/05/06 05:24:37;;;;;;;;;2.25;2.25;;;;;;;;4984385;28;45450;-73
2022/05/06 05:27:03;;;;;;;;;2.00;2.00;;;;;;;;4987733;28;45329;-74
2022/05/06 05:29:28;;;;;;;;;3.00;3.00;;;;;;;;4995548;28;47224;-74
2022/05/06 05:31:54;;;;;;;;;3.00;3.00;;;;;;;;4995526;28;45317;-74
2022/05/06 05:34:19;;;;;;;;;2.00;2.00;;;;;;;;4994502;28;45495;-74
2022/05/06 05:36:45;;;;;;;;;2.00;2.00;;;;;;;;4995504;28;45469;-74
2022/05/06 05:39:11;;;;;;;;;3.00;3.00;;;;;;;;4994956;28;46562;-75
2022/05/06 05:41:36;;;;;;;;;1.75;1.75;;;;;;;;4995356;28;45355;-75
2022/05/06 05:49:29;;;;;;;;;2.25;2.25;;;;;;;;4980321;28;45406;-75
2022/05/06 05:51:55;;;;;;;;;2.75;2.75;;;;;;;;4995425;28;45394;-74
2022/05/06 05:54:20;;;;;;;;;2.75;2.75;;;;;;;;4988800;28;45392;-74
2022/05/06 05:56:48;;;;;;;;;3.00;3.00;;;;;;;;4985078;28;45519;-75
2022/05/06 05:59:14;;;;;;;;;2.75;2.00;;;;;;;;4980950;28;45480;-75
2022/05/06 06:01:39;;;;;;;;;2.50;2.50;;;;;;;;4985220;28;45472;-75
2022/05/06 06:04:05;;;;;;;;;2.25;2.25;;;;;;;;4995318;28;45289;-75
2022/05/06 06:06:30;;;;;;;;;3.25;3.25;;;;;;;;4987690;28;45324;-74
2022/05/06 06:08:56;;;;;;;;;3.00;3.00;;;;;;;;4983904;28;46507;-72
2022/05/06 06:11:21;;;;;;;;;3.00;3.00;;;;;;;;4983630;28;45613;-75
2022/05/06 06:13:46;;;;;;;;;3.00;3.00;;;;;;;;4995207;28;45381;-74
2022/05/06 06:16:12;;;;;;;;;2.25;2.25;;;;;;;;4997736;28;45547;-75
2022/05/06 06:18:37;;;;;;;;;3.00;3.00;;;;;;;;4996786;28;45464;-75
2022/05/06 06:21:02;;;;;;;;;4.00;2.75;;;;;;;;4993948;28;45591;-74
2022/05/06 06:23:31;;;;;;;;;5.25;5.25;;;;;;;;4994048;28;45523;-73
2022/05/06 06:25:56;;;;;;;;;5.50;5.25;;;;;;;;4994684;28;45608;-73
2022/05/06 06:28:21;;;;;;;;;7.00;7.00;;;;;;;;4981134;28;45377;-73
2022/05/06 06:30:46;;;;;;;;;8.25;7.00;;;;;;;;4983390;28;45600;-73
2022/05/06 06:33:12;;;;;;;;;6.00;6.00;;;;;;;;4988709;28;45432;-74
2022/05/06 06:35:37;;;;;;;;;8.00;8.00;;;;;;;;4992484;28;45570;-74
2022/05/06 06:38:02;;;;;;;;;7.00;6.00;;;;;;;;4989385;28;47328;-73
2022/05/06 06:40:27;;;;;;;;;6.75;6.75;;;;;;;;4994602;28;45465;-74
2022/05/06 06:42:53;;;;;;;;;10.25;7.00;;;;;;;;4994175;28;45646;-74
2022/05/06 06:45:19;;;;;;;;;9.25;8.75;;;;;;;;4988081;28;45562;-78
2022/05/06 06:47:44;;;;;;;;;7.00;7.00;;;;;;;;4993521;28;46346;-79
2022/05/06 06:50:10;;;;;;;;;7.00;7.00;;;;;;;;4993751;28;45541;-76
2022/05/06 06:52:35;;;;;;;;;7.50;6.25;;;;;;;;4987747;28;45541;-76
2022/05/06 06:55:00;;;;;;;;;7.25;7.25;;;;;;;;4992663;28;45454;-77
2022/05/06 06:57:30;;;;;;;;;8.25;8.25;;;;;;;;4992091;28;46435;-77
2022/05/06 06:59:55;;;;;;;;;6.50;6.50;;;;;;;;4991595;28;45535;-74
2022/05/06 07:02:20;;;;;;;;;5.00;5.00;;;;;;;;4984695;28;45707;-73
2022/05/06 07:04:45;;;;;;;;;5.50;5.00;;;;;;;;4978379;28;45343;-72
2022/05/06 07:12:38;;;;;;;;;5.00;3.25;;;;;;;;4993996;28;45413;-73
2022/05/06 07:15:03;;;;;;;;;4.25;4.00;;;;;;;;4993345;28;45365;-72
2022/05/06 07:17:29;;;;;;;;;5.00;5.00;;;;;;;;5003172;28;45459;-73
2022/05/06 07:19:54;;;;;;;;;6.25;5.00;;;;;;;;4993977;28;45618;-73
2022/05/06 07:22:19;;;;;;;;;5.25;3.50;;;;;;;;4998627;28;45281;-73
2022/05/06 07:24:45;;;;;;;;;4.00;4.00;;;;;;;;4989659;28;45503;-72
2022/05/06 07:27:10;;;;;;;;;4.00;4.00;;;;;;;;4988120;28;47134;-72
2022/05/06 07:29:35;;;;;;;;;4.00;3.75;;;;;;;;4993137;28;45455;-73
2022/05/06 07:32:00;;;;;;;;;3.00;3.00;;;;;;;;4993825;28;45341;-73
2022/05/06 07:34:26;;;;;;;;;3.50;3.50;;;;;;;;4981738;28;45274;-73
2022/05/06 07:36:51;;;;;;;;;5.00;5.00;;;;;;;;4985869;28;45288;-72
2022/05/06 07:39:16;;;;;;;;;2.00;2.00;;;;;;;;4984480;28;45452;-73
2022/05/06 07:41:42;;;;;;;;;5.50;3.00;;;;;;;;4982182;28;45533;-72
2022/05/06 07:44:08;;;;;;;;;3.50;3.25;;;;;;;;4996866;28;45442;-73
2022/05/06 07:46:34;;;;;;;;;3.50;3.25;;;;;;;;4995734;28;46158;-73
2022/05/06 07:48:59;;;;;;;;;5.00;5.00;;;;;;;;4997039;28;45855;-73
2022/05/06 07:51:24;;;;;;;;;4.00;4.00;;;;;;;;4997763;28;45545;-73
2022/05/06 07:53:52;;;;;;;;;4.00;4.00;;;;;;;;5003872;28;45484;-73
2022/05/06 07:56:20;;;;;;;;;4.25;4.00;;;;;;;;4981899;28;47977;-73
2022/05/06 07:58:45;;;;;;;;;3.00;3.00;;;;;;;;4996010;28;45590;-73
2022/05/06 08:01:12;;;;;;;;;3.25;3.25;;;;;;;;4986332;28;45385;-73
2022/05/06 08:06:21;;;;;;;;;3.00;3.00;;;;;;;;4997117;28;45357;-73
2022/05/06 08:08:47;;;;;;;;;2.00;2.00;;;;;;;;4991801;28;45371;-73
2022/05/06 08:11:12;;;;;;;;;4.00;4.00;;;;;;;;4996551;28;45390;-73
2022/05/06 08:13:37;;;;;;;;;5.00;3.50;;;;;;;;4980992;28;45432;-73
2022/05/06 08:16:02;;;;;;;;;4.00;3.00;;;;;;;;4996508;28;46456;-73
2022/05/06 08:18:28;;;;;;;;;3.50;3.00;;;;;;;;4989142;28;45325;-73
2022/05/06 08:20:53;;;;;;;;;3.25;3.00;;;;;;;;4988402;28;45987;-73
2022/05/06 08:23:22;;;;;;;;;3.00;3.00;;;;;;;;4996103;28;45424;-73
2022/05/06 08:25:48;;;;;;;;;4.00;3.50;;;;;;;;4980761;28;46457;-73
2022/05/06 08:28:14;;;;;;;;;3.33;3.33;;;;;;;;4996489;28;45462;-73
2022/05/06 08:30:39;;;;;;;;;3.75;3.75;;;;;;;;4987906;28;45263;-73
2022/05/06 08:33:04;;;;;;;;;3.25;3.25;;;;;;;;4985198;28;45370;-73
2022/05/06 08:35:30;;;;;;;;;5.25;4.00;;;;;;;;4985037;28;46310;-73
2022/05/06 08:37:57;;;;;;;;;4.00;3.00;;;;;;;;4980388;28;45348;-73
2022/05/06 08:40:26;;;;;;;;;4.00;3.00;;;;;;;;4982142;28;45528;-73
2022/05/06 08:42:51;;;;;;;;;4.50;3.00;;;;;;;;4994426;28;45345;-73
2022/05/06 08:50:55;;;;;;;;;3.00;3.00;;;;;;;;4992467;28;45428;-73
2022/05/06 08:53:23;;;;;;;;;3.75;2.75;;;;;;;;4982472;28;45385;-73
2022/05/06 08:55:48;;;;;;;;;3.00;3.00;;;;;;;;4993271;28;46058;-72
2022/05/06 08:58:14;;;;;;;;;4.25;4.25;;;;;;;;4980742;28;45325;-73
2022/05/06 09:00:39;;;;;;;;;3.00;3.00;;;;;;;;4993105;28;45551;-73
2022/05/06 09:03:04;;;;;;;;;4.00;4.00;;;;;;;;4999682;28;45532;-73
2022/05/06 09:05:31;;;;;;;;;3.00;3.00;;;;;;;;4995629;28;46739;-73
2022/05/06 09:08:02;;;;;;;;;3.00;3.00;;;;;;;;4980026;28;45646;-73
2022/05/06 09:10:27;;;;;;;;;2.25;2.25;;;;;;;;4986902;28;45338;-73
2022/05/06 09:12:56;;;;;;;;;4.00;4.00;;;;;;;;4996222;28;45725;-72
2022/05/06 09:18:09;;;;;;;;;4.00;2.00;;;;;;;;4991206;28;45405;-73
2022/05/06 09:20:34;;;;;;;;;3.00;3.00;;;;;;;;4983841;28;45445;-72
2022/05/06 09:23:18;;;;;;;;;2.75;2.75;;;;;;;;4979482;28;45564;-73
2022/05/06 09:25:45;;;;;;;;;5.00;3.00;;;;;;;;4992730;28;46424;-73
2022/05/06 09:28:20;;;;;;;;;4.00;4.00;;;;;;;;4983195;28;45337;-73
2022/05/06 09:30:58;;;;;;;;;4.25;4.25;;;;;;;;4991765;28;45494;-73
2022/05/06 09:33:24;;;;;;;;;2.50;2.50;;;;;;;;4991295;28;45479;-73
2022/05/06 09:35:50;;;;;;;;;4.00;4.00;;;;;;;;4993132;28;47068;-73
2022/05/06 09:38:16;;;;;;;;;3.25;3.25;;;;;;;;4981187;28;45445;-73
2022/05/06 09:40:41;;;;;;;;;2.75;2.75;;;;;;;;4979034;28;45381;-73
2022/05/06 09:43:15;;;;;;;;;4.00;4.00;;;;;;;;4995985;28;45415;-73
2022/05/06 09:45:42;;;;;;;;;4.50;3.50;;;;;;;;4994559;28;46448;-73
2022/05/06 09:48:11;;;;;;;;;3.50;3.25;;;;;;;;4990686;28;45405;-73
2022/05/06 09:50:42;;;;;;;;;3.00;3.00;;;;;;;;4984030;28;45611;-73
2022/05/06 09:53:09;;;;;;;;;4.75;4.75;;;;;;;;4980051;28;45374;-73
2022/05/06 09:55:35;;;;;;;;;3.00;3.00;;;;;;;;4994826;28;46087;-73
2022/05/06 09:58:00;;;;;;;;;2.25;2.25;;;;;;;;4994200;28;45572;-73
2022/05/06 10:00:27;;;;;;;;;4.75;3.00;;;;;;;;4994551;28;45475;-73
2022/05/06 10:02:52;;;;;;;;;3.50;3.50;;;;;;;;4995954;28;45475;-73
2022/05/06 10:05:17;;;;;;;;;5.00;4.00;;;;;;;;5008355;28;47115;-73
2022/05/06 10:07:43;;;;;;;;;3.75;2.25;;;;;;;;4994588;28;45343;-73
2022/05/06 10:10:22;;;;;;;;;3.00;3.00;;;;;;;;4995307;28;45527;-73
2022/05/06 10:12:52;;;;;;;;;4.75;4.25;;;;;;;;4994136;28;45403;-73
2022/05/06 10:15:19;;;;;;;;;4.00;4.00;;;;;;;;4986494;28;46136;-71
2022/05/06 10:18:02;;;;;;;;;5.25;3.25;;;;;;;;4989860;28;45469;-78
2022/05/06 10:23:02;;;;;;;;;4.50;4.50;;;;;;;;4978674;28;45453;-73
2022/05/06 10:25:47;;;;;;;;;3.75;3.75;;;;;;;;4979331;28;47030;-72
2022/05/06 10:34:10;;;;;;;;;3.75;3.75;;;;;;;;4994253;28;45410;-77
2022/05/06 10:36:42;;;;;;;;;4.00;4.00;;;;;;;;4993900;28;46131;-75
2022/05/06 10:39:20;;;;;;;;;3.50;3.50;;;;;;;;4993728;28;45534;-74
2022/05/06 10:42:02;;;;;;;;;3.25;2.50;;;;;;;;4994086;28;45384;-75
2022/05/06 10:44:32;;;;;;;;;2.25;2.25;;;;;;;;4994371;28;45892;-75
2022/05/06 10:46:57;;;;;;;;;4.00;4.00;;;;;;;;4995245;28;46282;-75
2022/05/06 10:49:34;;;;;;;;;3.00;3.00;;;;;;;;4994655;28;45470;-75
2022/05/06 10:52:33;;;;;;;;;4.25;3.75;;;;;;;;4982779;28;45290;-73
2022/05/06 10:55:00;;;;;;;;;3.50;3.50;;;;;;;;4998641;28;45693;-73
2022/05/06 10:57:26;;;;;;;;;3.75;3.00;;;;;;;;4973841;28;47921;-73
2022/05/06 11:00:00;;;;;;;;;4.75;4.75;;;;;;;;4974960;28;45626;-73
2022/05/06 11:02:27;;;;;;;;;5.00;5.00;;;;;;;;4991393;28;45520;-74
2022/05/06 11:04:56;;;;;;;;;5.75;5.25;;;;;;;;4991414;28;46508;-74
2022/05/06 11:07:21;;;;;;;;;4.75;3.75;;;;;;;;4991910;28;45559;-72
2022/05/06 11:09:47;;;;;;;;;4.50;4.50;;;;;;;;4994615;28;45496;-73
2022/05/06 11:12:51;;;;;;;;;2.50;2.50;;;;;;;;4993732;28;45837;-70
2022/05/06 11:15:18;;;;;;;;;5.00;4.00;;;;;;;;4935750;28;45456;-69
2022/05/06 11:17:44;;;;;;;;;4.00;4.00;;;;;;;;4937358;28;46659;-70
2022/05/06 11:20:21;;;;;;;;;5.50;4.50;;;;;;;;4938334;28;45720;-71
2022/05/06 11:22:54;;;;;;;;;6.50;6.50;;;;;;;;4936239;28;45504;-71
2022/05/06 11:25:21;;;;;;;;;3.00;3.00;;;;;;;;4935679;28;45952;-71
2022/05/06 11:27:47;;;;;;;;;3.50;3.50;;;;;;;;4935866;28;46015;-71
2022/05/06 11:30:16;;;;;;;;;3.00;3.00;;;;;;;;4940455;28;45544;-72
2022/05/06 11:32:46;;;;;;;;;4.00;3.00;;;;;;;;4965142;28;45529;-71
2022/05/06 11:35:14;;;;;;;;;3.75;3.50;;;;;;;;4943855;28;45528;-71
2022/05/06 11:37:40;;;;;;;;;4.75;4.75;;;;;;;;4939863;28;46588;-71
2022/05/06 11:40:18;;;;;;;;;4.25;4.25;;;;;;;;4955509;28;45520;-71
2022/05/06 11:42:44;;;;;;;;;4.25;2.75;;;;;;;;4956354;28;45511;-72
2022/05/06 11:48:05;;;;;;;;;2.75;2.75;;;;;;;;5001821;28;45797;-72
2022/05/06 11:50:30;;;;;;;;;3.00;3.00;;;;;;;;4996873;28;45418;-71
2022/05/06 11:52:58;;;;;;;;;3.75;2.50;;;;;;;;4996782;28;45364;-71
2022/05/06 11:55:23;;;;;;;;;4.00;4.00;;;;;;;;5009305;28;45543;-71
2022/05/06 11:57:49;;;;;;;;;4.00;4.00;;;;;;;;4998001;28;46086;-72
2022/05/06 12:00:15;;;;;;;;;3.00;3.00;;;;;;;;4990307;28;45428;-72
2022/05/06 12:02:48;;;;;;;;;6.75;5.50;;;;;;;;4986021;28;45366;-71
2022/05/06 12:05:13;;;;;;;;;3.00;3.00;;;;;;;;5011289;28;45464;-71
2022/05/06 12:07:45;;;;;;;;;5.25;4.00;;;;;;;;4980554;28;46116;-72
2022/05/06 12:10:11;;;;;;;;;3.25;3.25;;;;;;;;4984865;28;45973;-72
2022/05/06 12:12:54;;;;;;;;;4.00;4.00;;;;;;;;4991847;28;45492;-71
2022/05/06 12:15:20;;;;;;;;;3.67;3.67;;;;;;;;4996039;28;45360;-71
2022/05/06 12:17:45;;;;;;;;;4.50;4.50;;;;;;;;4996439;28;46214;-71
2022/05/06 12:20:30;;;;;;;;;3.00;3.00;;;;;;;;4994768;28;45412;-71
2022/05/06 12:22:58;;;;;;;;;2.33;2.33;;;;;;;;4996501;28;45390;-71
2022/05/06 12:25:23;;;;;;;;;3.75;3.75;;;;;;;;4995990;28;45501;-71
2022/05/06 12:28:02;;;;;;;;;5.00;5.00;;;;;;;;4995478;28;47178;-71
2022/05/06 12:30:29;;;;;;;;;3.50;3.00;;;;;;;;4989286;28;45619;-71
2022/05/06 12:33:01;;;;;;;;;5.00;5.00;;;;;;;;4980435;28;45374;-71
2022/05/06 12:35:26;;;;;;;;;3.00;3.00;;;;;;;;4983308;28;45567;-71
2022/05/06 12:37:55;;;;;;;;;4.00;4.00;;;;;;;;5003151;28;46379;-71
2022/05/06 12:40:20;;;;;;;;;3.00;3.00;;;;;;;;4983080;28;45507;-71
2022/05/06 12:43:01;;;;;;;;;2.25;2.25;;;;;;;;4993814;28;45970;-71
2022/05/06 12:45:27;;;;;;;;;2.25;2.25;;;;;;;;4994636;28;45432;-71
2022/05/06 12:50:36;;;;;;;;;4.00;3.25;;;;;;;;4984972;28;45295;-71
2022/05/06 12:53:01;;;;;;;;;3.00;3.00;;;;;;;;4995979;28;45262;-71
2022/05/06 12:55:26;;;;;;;;;5.50;4.25;;;;;;;;5002476;28;45372;-71
2022/05/06 12:57:52;;;;;;;;;5.25;5.25;;;;;;;;4990742;28;45467;-71
2022/05/06 13:00:17;;;;;;;;;4.00;4.00;;;;;;;;4990177;28;45429;-71
2022/05/06 13:02:42;;;;;;;;;4.75;3.00;;;;;;;;4989938;28;45329;-71
2022/05/06 13:05:08;;;;;;;;;3.75;3.75;;;;;;;;4980088;28;45472;-71
2022/05/06 13:07:33;;;;;;;;;3.00;3.00;;;;;;;;4979578;28;45958;-71
2022/05/06 13:09:58;;;;;;;;;3.75;3.75;;;;;;;;4984527;28;45616;-71
2022/05/06 13:12:23;;;;;;;;;4.00;4.00;;;;;;;;4984631;28;45435;-71
2022/05/06 13:14:48;;;;;;;;;5.00;5.00;;;;;;;;4985595;28;45360;-71
2022/05/06 13:17:14;;;;;;;;;5.25;3.00;;;;;;;;4994234;28;48178;-71
2022/05/06 13:19:39;;;;;;;;;5.25;5.00;;;;;;;;4978334;28;45291;-71
2022/05/06 13:22:04;;;;;;;;;5.00;3.50;;;;;;;;4995920;28;45318;-71
2022/05/06 13:24:29;;;;;;;;;3.00;3.00;;;;;;;;4988069;28;45404;-71
2022/05/06 13:26:54;;;;;;;;;3.50;3.50;;;;;;;;4984134;28;46308;-71
2022/05/06 13:29:20;;;;;;;;;5.00;3.75;;;;;;;;4995326;28;45454;-71
2022/05/06 13:31:45;;;;;;;;;4.00;4.00;;;;;;;;4987800;28;45460;-72
2022/05/06 13:34:10;;;;;;;;;4.75;3.00;;;;;;;;4995581;28;45484;-71
2022/05/06 13:36:37;;;;;;;;;4.00;4.00;;;;;;;;4995197;28;46217;-71
2022/05/06 13:39:02;;;;;;;;;4.00;4.00;;;;;;;;4991744;28;45553;-72
2022/05/06 13:41:27;;;;;;;;;3.00;3.00;;;;;;;;4982722;28;45354;-71
2022/05/06 13:43:53;;;;;;;;;4.00;4.00;;;;;;;;4979493;28;45301;-71
2022/05/06 13:46:18;;;;;;;;;4.00;4.00;;;;;;;;4985575;28;46223;-72
2022/05/06 13:48:43;;;;;;;;;5.00;5.00;;;;;;;;4994620;28;45535;-71
2022/05/06 13:51:09;;;;;;;;;6.25;4.50;;;;;;;;4989898;28;45943;-71
2022/05/06 13:53:34;;;;;;;;;3.50;3.50;;;;;;;;4993034;28;45564;-71
2022/05/06 13:59:07;;;;;;;;;4.00;3.00;;;;;;;;4938640;28;45645;-72
2022/05/06 14:01:33;;;;;;;;;5.00;4.00;;;;;;;;4949822;28;45347;-71
2022/05/06 14:03:59;;;;;;;;;4.75;4.75;;;;;;;;4936089;28;45342;-71
2022/05/06 14:06:24;;;;;;;;;4.25;4.25;;;;;;;;4937970;28;46638;-72
2022/05/06 14:08:49;;;;;;;;;4.00;4.00;;;;;;;;4953438;28;45585;-71
2022/05/06 14:11:16;;;;;;;;;3.00;3.00;;;;;;;;4954880;28;45555;-71
2022/05/06 14:13:41;;;;;;;;;3.25;3.25;;;;;;;;4953179;28;45609;-71
2022/05/06 14:16:07;;;;;;;;;3.00;3.00;;;;;;;;4953393;28;45442;-71
2022/05/06 14:18:32;;;;;;;;;3.75;3.75;;;;;;;;4955616;28;45413;-71
2022/05/06 14:20:57;;;;;;;;;5.25;5.25;;;;;;;;4953007;28;45513;-71
2022/05/06 14:23:24;;;;;;;;;4.00;4.00;;;;;;;;4954410;28;45473;-71
2022/05/06 14:25:49;;;;;;;;;3.75;3.75;;;;;;;;4953510;28;46205;-72
2022/05/06 14:28:14;;;;;;;;;4.00;4.00;;;;;;;;4957135;28;45776;-71
2022/05/06 14:30:41;;;;;;;;;4.00;3.75;;;;;;;;4952706;28;45525;-72
2022/05/06 14:33:06;;;;;;;;;4.75;4.75;;;;;;;;4975528;28;45291;-72
2022/05/06 14:35:33;;;;;;;;;3.75;3.75;;;;;;;;4994787;28;45335;-71
2022/05/06 14:38:00;;;;;;;;;4.75;4.00;;;;;;;;4994510;28;45487;-71
2022/05/06 14:40:25;;;;;;;;;3.00;3.00;;;;;;;;4996024;28;45495;-71
2022/05/06 14:42:51;;;;;;;;;4.00;4.00;;;;;;;;4997296;28;45752;-71
2022/05/06 14:45:16;;;;;;;;;5.25;4.25;;;;;;;;4998308;28;45311;-72
2022/05/06 14:47:42;;;;;;;;;4.00;4.00;;;;;;;;4990017;28;45377;-71
2022/05/06 14:50:08;;;;;;;;;5.00;5.00;;;;;;;;4998545;28;45480;-71
2022/05/06 14:52:34;;;;;;;;;5.75;3.75;;;;;;;;4998793;28;45397;-71
2022/05/06 14:55:05;;;;;;;;;5.00;4.00;;;;;;;;4986362;28;46883;-71
2022/05/06 14:57:31;;;;;;;;;6.00;3.00;;;;;;;;4993193;28;45449;-71
2022/05/06 14:59:56;;;;;;;;;5.00;5.00;;;;;;;;4991951;28;45507;-71
2022/05/06 15:02:21;;;;;;;;;5.00;4.00;;;;;;;;4997303;28;45534;-72
2022/05/06 15:04:47;;;;;;;;;3.50;3.50;;;;;;;;4997794;28;46077;-71
2022/05/06 15:07:12;;;;;;;;;4.00;3.50;;;;;;;;4985398;28;45345;-71
2022/05/06 15:09:37;;;;;;;;;4.00;3.50;;;;;;;;4994372;28;45501;-71
2022/05/06 15:12:03;;;;;;;;;3.00;3.00;;;;;;;;4997519;28;45349;-71
2022/05/06 15:14:31;;;;;;;;;4.25;3.75;;;;;;;;4997028;28;45562;-71
2022/05/06 15:17:03;;;;;;;;;5.00;5.00;;;;;;;;4997283;28;45380;-71
2022/05/06 15:19:31;;;;;;;;;3.50;3.50;;;;;;;;4983423;28;45286;-71
2022/05/06 15:21:56;;;;;;;;;4.00;4.00;;;;;;;;4996940;28;45354;-71
2022/05/06 15:24:26;;;;;;;;;3.75;3.75;;;;;;;;4996408;28;45945;-71
2022/05/06 15:26:52;;;;;;;;;3.50;2.75;;;;;;;;5000172;28;45581;-71
2022/05/06 15:29:17;;;;;;;;;5.25;4.50;;;;;;;;4996599;28;45381;-72